Time;durP1;ratioP1;P1;durP2;ratioP2;P2;SDS_P1;SDS_P2;PMS_P1;PMS_P2;Temp;Humidity;BMP_temperature;BMP_pressure;BME280_temperature;BME280_humidity;BME280_pressure;Samples;Min_cycle;Max_cycle;Signal;HPM_P1;HPM_P2
2021/09/27 00:02:25;;;;;;;4.00;2.00;;;16.00;99.90;;;;;;5058560;28;20119;-86
2021/09/27 00:04:51;;;;;;;3.78;1.48;;;15.90;99.90;;;;;;5070046;28;20027;-85
2021/09/27 00:07:17;;;;;;;4.22;1.83;;;15.90;99.90;;;;;;5054913;28;20107;-85
2021/09/27 00:09:44;;;;;;;4.38;1.92;;;15.90;99.90;;;;;;5053924;28;20029;-85
2021/09/27 00:12:10;;;;;;;4.15;1.58;;;15.90;99.90;;;;;;5053807;28;20033;-85
2021/09/27 00:14:38;;;;;;;3.28;1.63;;;15.90;99.90;;;;;;5054200;28;20108;-85
2021/09/27 00:17:07;;;;;;;3.85;1.88;;;15.90;99.90;;;;;;5054462;28;20112;-86
2021/09/27 00:19:37;;;;;;;3.25;1.35;;;15.80;99.90;;;;;;5053694;28;20056;-86
2021/09/27 00:22:05;;;;;;;3.78;1.88;;;15.80;99.90;;;;;;5054130;28;20056;-86
2021/09/27 00:24:30;;;;;;;3.47;2.08;;;15.80;99.90;;;;;;5053986;28;20032;-85
2021/09/27 00:26:56;;;;;;;3.30;1.50;;;15.70;99.90;;;;;;5054753;28;20021;-86
2021/09/27 00:29:22;;;;;;;4.57;1.88;;;15.80;99.90;;;;;;5053738;28;20032;-86
2021/09/27 00:31:47;;;;;;;2.85;1.75;;;15.70;99.90;;;;;;5054992;28;20060;-86
2021/09/27 00:34:13;;;;;;;4.18;2.20;;;15.70;99.90;;;;;;5054033;28;20602;-86
2021/09/27 00:36:39;;;;;;;3.40;1.77;;;15.70;99.90;;;;;;5053952;28;20505;-85
2021/09/27 00:39:05;;;;;;;4.10;1.80;;;15.70;99.90;;;;;;5055331;28;20024;-87
2021/09/27 00:41:32;;;;;;;4.50;2.20;;;15.60;99.90;;;;;;5053277;28;20085;-85
2021/09/27 00:43:58;;;;;;;3.88;1.58;;;15.60;99.90;;;;;;5055649;28;20501;-85
2021/09/27 00:46:25;;;;;;;4.30;2.15;;;15.60;99.90;;;;;;5055006;28;20017;-86
2021/09/27 00:48:52;;;;;;;4.93;2.38;;;15.60;99.90;;;;;;5053784;28;20080;-87
2021/09/27 00:51:25;;;;;;;4.40;2.15;;;15.50;99.90;;;;;;5053186;28;20025;-86
2021/09/27 00:54:04;;;;;;;3.67;1.35;;;15.50;99.90;;;;;;5054854;28;20093;-87
2021/09/27 00:56:36;;;;;;;3.67;1.67;;;15.50;99.90;;;;;;5054880;28;20400;-86
2021/09/27 00:59:03;;;;;;;4.78;1.90;;;15.50;99.90;;;;;;5054618;28;20430;-86
2021/09/27 01:01:29;;;;;;;5.05;2.00;;;15.40;99.90;;;;;;5053996;28;20033;-85
2021/09/27 01:03:55;;;;;;;3.53;1.58;;;15.30;99.90;;;;;;5053799;28;20021;-85
2021/09/27 01:06:39;;;;;;;3.90;2.22;;;15.30;99.90;;;;;;5050300;28;20085;-86
2021/09/27 01:09:24;;;;;;;3.22;1.65;;;15.20;99.90;;;;;;5054021;28;20021;-87
2021/09/27 01:12:16;;;;;;;4.25;2.05;;;15.20;99.90;;;;;;5055292;28;20071;-86
2021/09/27 01:14:41;;;;;;;;;;;15.20;99.90;;;;;;5053527;28;20486;-86
2021/09/27 01:17:34;;;;;;;4.38;1.58;;;15.10;99.90;;;;;;5053654;28;19916;-86
2021/09/27 01:20:21;;;;;;;4.05;1.83;;;15.10;99.90;;;;;;5053385;28;20021;-86
2021/09/27 01:23:17;;;;;;;4.13;1.73;;;15.10;99.90;;;;;;5052470;28;20095;-85
2021/09/27 01:26:07;;;;;;;3.60;1.98;;;15.10;99.90;;;;;;5055729;28;20031;-85
2021/09/27 01:29:01;;;;;;;3.35;1.65;;;15.10;99.90;;;;;;5055329;28;20025;-86
2021/09/27 01:31:48;;;;;;;4.10;2.00;;;15.10;99.90;;;;;;5055162;28;20396;-86
2021/09/27 01:34:27;;;;;;;4.55;1.92;;;15.20;99.90;;;;;;5047676;28;20093;-86
2021/09/27 01:37:06;;;;;;;3.58;1.85;;;15.20;99.90;;;;;;5053567;28;20051;-86
2021/09/27 01:39:37;;;;;;;3.70;1.85;;;15.20;99.90;;;;;;5053341;28;20503;-88
2021/09/27 01:42:17;;;;;;;4.82;1.95;;;15.20;99.90;;;;;;5067405;28;20057;-85
2021/09/27 01:45:00;;;;;;;3.60;1.48;;;15.20;99.90;;;;;;5054868;28;20035;-87
2021/09/27 01:47:38;;;;;;;3.28;2.03;;;15.20;99.90;;;;;;5054101;28;20024;-86
2021/09/27 01:50:09;;;;;;;3.63;1.77;;;15.20;99.90;;;;;;5052330;28;20027;-86
2021/09/27 01:52:42;;;;;;;3.97;1.60;;;15.30;99.90;;;;;;5050645;28;20032;-86
2021/09/27 01:55:15;;;;;;;4.00;1.80;;;15.30;99.90;;;;;;5052125;28;20024;-86
2021/09/27 01:58:06;;;;;;;4.47;1.67;;;15.30;99.90;;;;;;5035345;28;20670;-86
2021/09/27 02:00:43;;;;;;;3.97;1.92;;;15.30;99.90;;;;;;5053653;28;20424;-86
2021/09/27 02:03:27;;;;;;;3.53;1.50;;;15.30;99.90;;;;;;5054278;28;20429;-87
2021/09/27 02:06:17;;;;;;;3.88;1.85;;;15.40;99.90;;;;;;5053076;28;20017;-86
2021/09/27 02:09:06;;;;;;;4.13;1.65;;;15.40;99.90;;;;;;5054542;28;20358;-87
2021/09/27 02:11:36;;;;;;;4.30;1.83;;;15.30;99.90;;;;;;5052686;28;20020;-86
2021/09/27 02:14:14;;;;;;;3.90;1.80;;;15.40;99.90;;;;;;5054743;28;20072;-85
2021/09/27 02:17:03;;;;;;;4.28;1.77;;;15.40;99.90;;;;;;5047171;28;20499;-85
2021/09/27 02:19:32;;;;;;;3.97;1.77;;;15.40;99.90;;;;;;5052736;28;20102;-86
2021/09/27 02:22:20;;;;;;;3.42;1.50;;;15.40;99.90;;;;;;5052479;28;20108;-85
2021/09/27 02:25:14;;;;;;;2.90;1.45;;;15.40;99.90;;;;;;5050850;28;20167;-85
2021/09/27 02:27:41;;;;;;;3.92;1.80;;;15.30;99.90;;;;;;5055673;28;20498;-86
2021/09/27 02:30:10;;;;;;;3.50;1.60;;;15.30;99.90;;;;;;5050753;28;20070;-86
2021/09/27 02:32:41;;;;;;;3.40;1.90;;;15.30;99.90;;;;;;5051502;28;20032;-86
2021/09/27 02:35:10;;;;;;;3.05;1.50;;;15.30;99.90;;;;;;5052122;28;20056;-85
2021/09/27 02:37:39;;;;;;;2.65;1.23;;;15.20;99.90;;;;;;5050960;28;20084;-86
2021/09/27 02:40:08;;;;;;;3.75;1.48;;;15.20;99.90;;;;;;5054600;28;20021;-86
2021/09/27 02:42:51;;;;;;;4.07;2.05;;;15.20;99.90;;;;;;5056809;28;20017;-86
2021/09/27 02:45:18;;;;;;;3.15;1.55;;;15.20;99.90;;;;;;5037422;28;20044;-86
2021/09/27 02:47:49;;;;;;;3.00;1.42;;;15.10;99.90;;;;;;5053793;28;20026;-87
2021/09/27 02:50:22;;;;;;;3.25;1.52;;;15.20;99.90;;;;;;5049937;28;20031;-86
2021/09/27 02:52:47;;;;;;;4.00;1.60;;;15.10;99.90;;;;;;5052223;28;20039;-86
2021/09/27 02:55:19;;;;;;;3.72;1.77;;;15.20;99.90;;;;;;5053822;28;20025;-86
2021/09/27 02:58:04;;;;;;;4.72;2.20;;;15.10;99.90;;;;;;5053496;28;20029;-86
2021/09/27 03:01:00;;;;;;;3.38;1.98;;;15.00;99.90;;;;;;5053056;28;20100;-86
2021/09/27 03:03:42;;;;;;;4.90;2.35;;;15.00;99.90;;;;;;5052494;28;20112;-86
2021/09/27 03:06:26;;;;;;;3.55;1.70;;;15.00;99.90;;;;;;5057440;28;20029;-86
2021/09/27 03:08:57;;;;;;;4.55;1.92;;;15.00;99.90;;;;;;5056653;28;20032;-86
2021/09/27 03:11:29;;;;;;;3.90;1.70;;;15.00;99.90;;;;;;5069236;28;20480;-87
2021/09/27 03:13:54;;;;;;;3.17;1.50;;;15.00;99.90;;;;;;5055352;28;20021;-86
2021/09/27 03:16:55;;;;;;;3.40;1.95;;;15.00;99.90;;;;;;5055874;28;20396;-86
2021/09/27 03:19:51;;;;;;;3.88;2.10;;;15.00;99.90;;;;;;5053948;28;20024;-86
2021/09/27 03:22:43;;;;;;;3.30;1.33;;;15.00;99.90;;;;;;5056884;28;20579;-86
2021/09/27 03:25:18;;;;;;;2.78;1.52;;;15.00;99.90;;;;;;5055007;28;20220;-86
2021/09/27 03:28:06;;;;;;;5.07;2.63;;;14.90;99.90;;;;;;5038008;28;20120;-86
2021/09/27 03:31:04;;;;;;;4.75;2.25;;;14.90;99.90;;;;;;5057056;28;20023;-86
2021/09/27 03:33:39;;;;;;;4.07;1.88;;;14.90;99.90;;;;;;5057188;28;20009;-86
2021/09/27 03:36:37;;;;;;;4.03;1.92;;;14.90;99.90;;;;;;5057011;28;20151;-86
2021/09/27 03:39:33;;;;;;;4.03;1.90;;;15.00;99.90;;;;;;5054460;28;20051;-86
2021/09/27 03:42:16;;;;;;;4.68;2.15;;;15.10;99.90;;;;;;5054685;28;20060;-86
2021/09/27 03:45:09;;;;;;;2.72;1.55;;;15.10;99.90;;;;;;5071173;28;20516;-85
2021/09/27 03:48:00;;;;;;;3.33;1.52;;;15.20;99.90;;;;;;5055658;28;20039;-86
2021/09/27 03:50:52;;;;;;;3.97;1.70;;;15.20;99.90;;;;;;5058121;28;20040;-86
2021/09/27 03:53:25;;;;;;;3.88;1.92;;;15.20;99.90;;;;;;5057680;28;20486;-86
2021/09/27 03:56:28;;;;;;;3.22;1.63;;;15.10;99.90;;;;;;5056691;28;20029;-86
2021/09/27 03:59:11;;;;;;;3.22;1.75;;;15.10;99.90;;;;;;5053260;28;20123;-86
2021/09/27 04:01:39;;;;;;;4.30;1.75;;;15.10;99.90;;;;;;5048763;28;20474;-85
2021/09/27 04:04:18;;;;;;;3.92;1.70;;;15.10;99.90;;;;;;5053082;28;20021;-86
2021/09/27 04:07:14;;;;;;;3.65;1.60;;;15.20;99.90;;;;;;5054450;28;20021;-86
2021/09/27 04:09:55;;;;;;;3.67;1.45;;;15.20;99.90;;;;;;5051413;28;20297;-86
2021/09/27 04:12:38;;;;;;;3.92;1.70;;;15.20;99.90;;;;;;5052043;28;20024;-86
2021/09/27 04:15:06;;;;;;;3.90;1.63;;;15.30;99.90;;;;;;5053639;28;20144;-85
2021/09/27 04:18:02;;;;;;;3.83;1.60;;;15.30;99.90;;;;;;5061443;28;20054;-86
2021/09/27 04:20:42;;;;;;;3.22;1.58;;;15.30;99.90;;;;;;5052372;28;20064;-86
2021/09/27 04:23:31;;;;;;;3.22;1.83;;;15.40;99.90;;;;;;5051384;28;20469;-86
2021/09/27 04:26:09;;;;;;;4.32;1.67;;;15.30;99.90;;;;;;5065515;28;20024;-86
2021/09/27 04:28:48;;;;;;;3.33;1.48;;;15.30;99.90;;;;;;5053204;28;20048;-87
2021/09/27 04:31:36;;;;;;;3.05;1.40;;;15.20;99.90;;;;;;5064941;28;20021;-86
2021/09/27 04:34:05;;;;;;;2.92;1.50;;;15.30;99.90;;;;;;5040195;28;20037;-85
2021/09/27 04:36:36;;;;;;;3.20;1.33;;;15.20;99.90;;;;;;5075870;28;20416;-87
2021/09/27 04:39:15;;;;;;;2.47;1.17;;;15.20;99.90;;;;;;5060960;28;20115;-86
2021/09/27 04:41:40;;;;;;;3.58;1.70;;;15.20;99.90;;;;;;5060550;28;20025;-86
2021/09/27 04:44:44;;;;;;;3.75;1.58;;;15.20;99.90;;;;;;5058745;22;20040;-82
2021/09/27 04:47:27;;;;;;;2.78;1.35;;;15.10;99.90;;;;;;4976741;28;20034;-83
2021/09/27 04:50:47;;;;;;;3.75;1.73;;;15.20;99.90;;;;;;5030058;28;20061;-83
2021/09/27 04:53:22;;;;;;;4.25;1.75;;;15.10;99.90;;;;;;4995907;28;20641;-83
2021/09/27 04:56:17;;;;;;;2.78;1.35;;;15.00;99.90;;;;;;5012860;28;20038;-83
2021/09/27 04:59:20;;;;;;;4.00;2.13;;;15.00;99.90;;;;;;5029284;28;20068;-83
2021/09/27 05:02:06;;;;;;;2.80;1.50;;;15.00;99.90;;;;;;5035991;28;20109;-83
2021/09/27 05:05:01;;;;;;;2.95;1.60;;;15.00;99.90;;;;;;5037785;28;20025;-82
2021/09/27 05:07:54;;;;;;;3.50;1.45;;;14.90;99.90;;;;;;5039134;28;20559;-82
2021/09/27 05:10:39;;;;;;;4.15;1.63;;;14.90;99.90;;;;;;5039579;28;20021;-82
2021/09/27 05:13:16;;;;;;;2.80;1.17;;;14.80;99.90;;;;;;5023779;28;20025;-82
2021/09/27 05:15:56;;;;;;;3.55;1.48;;;14.70;99.90;;;;;;5020886;28;20093;-82
2021/09/27 05:18:41;;;;;;;3.63;1.70;;;14.70;99.90;;;;;;5020552;28;20032;-82
2021/09/27 05:21:15;;;;;;;3.65;1.92;;;14.70;99.90;;;;;;5029579;28;20047;-82
2021/09/27 05:24:13;;;;;;;3.75;1.70;;;14.70;99.90;;;;;;5023983;28;20018;-82
2021/09/27 05:26:59;;;;;;;3.13;1.48;;;14.70;99.90;;;;;;5021025;28;20037;-82
2021/09/27 05:29:54;;;;;;;3.30;1.67;;;14.70;99.90;;;;;;5026349;28;20491;-82
2021/09/27 05:32:42;;;;;;;3.22;1.52;;;14.70;99.90;;;;;;5037212;28;20304;-82
2021/09/27 05:35:33;;;;;;;4.30;1.70;;;14.60;99.90;;;;;;5036798;28;20064;-82
2021/09/27 05:38:13;;;;;;;3.58;1.50;;;14.60;99.90;;;;;;5034647;28;20029;-82
2021/09/27 05:41:04;;;;;;;2.92;1.40;;;14.60;99.90;;;;;;5017692;28;20033;-82
2021/09/27 05:43:38;;;;;;;4.13;1.83;;;14.70;99.90;;;;;;5037432;28;20025;-81
2021/09/27 05:46:36;;;;;;;2.97;1.17;;;14.60;99.90;;;;;;5030770;28;20538;-81
2021/09/27 05:49:27;;;;;;;3.10;1.40;;;14.70;99.90;;;;;;5033526;28;20530;-81
2021/09/27 05:52:02;;;;;;;4.50;1.88;;;14.70;99.90;;;;;;5037056;28;20086;-81
2021/09/27 05:55:00;;;;;;;3.22;1.40;;;14.80;99.90;;;;;;5018689;28;20045;-81
2021/09/27 05:57:49;;;;;;;3.60;1.80;;;14.80;99.90;;;;;;5032863;28;20029;-81
2021/09/27 06:00:25;;;;;;;3.83;1.77;;;14.90;99.90;;;;;;5036379;28;20025;-81
2021/09/27 06:03:10;;;;;;;2.90;1.65;;;14.90;99.90;;;;;;5026913;28;20089;-82
2021/09/27 06:05:53;;;;;;;3.95;1.67;;;15.00;99.90;;;;;;5005727;28;20116;-81
2021/09/27 06:08:42;;;;;;;5.25;1.73;;;15.00;99.90;;;;;;5033453;28;20043;-81
2021/09/27 06:11:29;;;;;;;2.88;1.40;;;15.10;99.90;;;;;;5028370;28;20132;-81
2021/09/27 06:13:56;;;;;;;3.97;1.70;;;15.10;99.90;;;;;;5033020;28;20128;-81
2021/09/27 06:16:45;;;;;;;4.03;1.52;;;15.20;99.90;;;;;;5019827;28;20417;-81
2021/09/27 06:19:21;;;;;;;3.83;1.63;;;15.20;99.90;;;;;;5030050;28;20025;-81
2021/09/27 06:22:18;;;;;;;3.95;1.92;;;15.20;99.90;;;;;;5020219;28;20025;-81
2021/09/27 06:25:01;;;;;;;5.90;1.88;;;15.30;99.90;;;;;;5038043;28;20029;-81
2021/09/27 06:27:46;;;;;;;3.38;1.80;;;15.30;99.90;;;;;;5036595;28;20040;-82
2021/09/27 06:30:22;;;;;;;3.22;1.70;;;15.40;99.90;;;;;;5017708;28;20377;-82
2021/09/27 06:33:12;;;;;;;5.47;1.63;;;15.40;99.90;;;;;;5017407;28;20039;-82
2021/09/27 06:35:40;;;;;;;3.80;1.77;;;15.40;99.90;;;;;;5017639;28;20160;-82
2021/09/27 06:38:09;;;;;;;3.63;1.70;;;15.50;99.90;;;;;;5017306;28;20036;-83
2021/09/27 06:40:40;;;;;;;3.60;1.63;;;15.50;99.90;;;;;;5025252;28;20026;-82
2021/09/27 06:43:10;;;;;;;3.72;1.50;;;15.60;99.90;;;;;;5030640;28;20037;-83
2021/09/27 06:45:36;;;;;;;3.15;1.20;;;15.70;99.90;;;;;;5015036;28;20034;-82
2021/09/27 06:48:01;;;;;;;3.25;1.98;;;15.80;99.90;;;;;;5017547;28;20440;-82
2021/09/27 06:50:28;;;;;;;3.17;1.27;;;15.80;99.90;;;;;;5009490;28;20069;-83
2021/09/27 06:52:54;;;;;;;3.78;1.88;;;15.90;99.90;;;;;;5009139;28;20026;-87
2021/09/27 06:55:19;;;;;;;2.60;1.55;;;15.90;99.90;;;;;;5011498;28;20431;-87
2021/09/27 06:57:45;;;;;;;3.30;1.35;;;15.90;99.90;;;;;;5004305;28;20037;-87
2021/09/27 07:00:13;;;;;;;3.42;1.40;;;15.90;99.90;;;;;;5010521;28;20021;-87
2021/09/27 07:02:39;;;;;;;2.40;1.42;;;16.00;99.90;;;;;;4993136;28;20434;-87
2021/09/27 07:05:07;;;;;;;4.38;2.00;;;16.20;99.90;;;;;;5010946;28;20026;-87
2021/09/27 07:07:33;;;;;;;4.43;2.00;;;16.20;99.90;;;;;;4997399;28;20292;-87
2021/09/27 07:09:59;;;;;;;3.25;1.58;;;16.20;99.90;;;;;;4995836;28;20029;-87
2021/09/27 07:12:24;;;;;;;2.90;1.10;;;16.20;99.90;;;;;;4993248;28;20022;-87
2021/09/27 07:14:50;;;;;;;3.35;1.65;;;16.40;99.90;;;;;;5006455;28;20061;-87
2021/09/27 07:17:15;;;;;;;3.20;1.70;;;16.30;99.90;;;;;;5012646;28;20478;-87
2021/09/27 07:19:41;;;;;;;3.85;1.33;;;16.40;99.90;;;;;;5012479;28;20163;-87
2021/09/27 07:22:08;;;;;;;2.83;1.40;;;16.50;99.90;;;;;;5012564;28;20112;-87
2021/09/27 07:24:34;;;;;;;4.30;1.88;;;16.40;99.90;;;;;;5024933;28;20030;-85
2021/09/27 07:27:02;;;;;;;3.72;1.85;;;16.40;99.90;;;;;;4998873;28;20060;-84
2021/09/27 07:29:27;;;;;;;3.78;1.75;;;16.50;99.90;;;;;;5017460;28;20273;-84
2021/09/27 07:31:54;;;;;;;4.15;2.03;;;16.50;99.90;;;;;;5009229;28;20391;-85
2021/09/27 07:34:20;;;;;;;2.78;1.40;;;16.60;99.90;;;;;;5010364;28;20144;-84
2021/09/27 07:36:47;;;;;;;3.55;1.48;;;16.60;99.90;;;;;;5006474;28;20029;-84
2021/09/27 07:39:12;;;;;;;3.38;1.20;;;16.70;99.90;;;;;;5003027;28;20033;-84
2021/09/27 07:41:38;;;;;;;3.10;1.67;;;16.70;99.90;;;;;;4991748;28;20034;-84
2021/09/27 07:44:05;;;;;;;4.10;1.90;;;16.90;99.90;;;;;;4991787;28;20663;-85
2021/09/27 07:46:31;;;;;;;2.35;1.00;;;17.00;99.90;;;;;;4991883;28;20044;-84
2021/09/27 07:48:57;;;;;;;2.67;1.20;;;17.00;99.90;;;;;;5023080;28;20052;-84
2021/09/27 07:51:25;;;;;;;2.80;1.40;;;17.10;99.90;;;;;;5025413;28;20032;-84
2021/09/27 07:53:51;;;;;;;2.78;1.25;;;17.20;99.90;;;;;;5019471;28;20029;-84
2021/09/27 07:56:17;;;;;;;2.72;1.63;;;17.30;99.90;;;;;;5011955;28;20025;-84
2021/09/27 07:58:42;;;;;;;2.25;1.20;;;17.40;99.90;;;;;;5010166;28;20396;-84
2021/09/27 08:01:08;;;;;;;3.17;1.40;;;17.50;99.90;;;;;;5005307;28;20043;-84
2021/09/27 08:03:35;;;;;;;2.08;1.02;;;17.60;99.90;;;;;;5014885;28;20140;-85
2021/09/27 08:06:00;;;;;;;2.72;0.98;;;17.70;99.90;;;;;;5015238;28;20561;-85
2021/09/27 08:08:26;;;;;;;3.17;1.23;;;17.70;99.90;;;;;;5021023;28;20688;-85
2021/09/27 08:10:52;;;;;;;2.63;1.00;;;17.80;99.90;;;;;;5010765;28;20026;-85
2021/09/27 08:13:18;;;;;;;2.67;0.95;;;17.80;99.90;;;;;;5032691;28;20470;-85
2021/09/27 08:15:48;;;;;;;2.67;0.98;;;17.90;99.90;;;;;;5033276;28;20025;-84
2021/09/27 08:18:15;;;;;;;1.85;0.80;;;17.90;99.90;;;;;;5017523;28;20021;-85
2021/09/27 08:20:45;;;;;;;1.75;0.73;;;18.10;99.90;;;;;;4994948;28;20032;-85
2021/09/27 08:23:12;;;;;;;1.70;0.77;;;18.30;99.90;;;;;;5012994;28;20033;-84
2021/09/27 08:25:38;;;;;;;1.40;0.63;;;18.40;99.90;;;;;;5013487;28;20648;-84
2021/09/27 08:28:05;;;;;;;2.20;0.80;;;18.50;99.90;;;;;;5030634;28;20082;-84
2021/09/27 08:30:42;;;;;;;2.47;0.80;;;18.60;99.90;;;;;;5005513;28;20450;-85
2021/09/27 08:33:07;;;;;;;1.63;0.75;;;18.70;99.90;;;;;;5012853;28;20030;-84
2021/09/27 08:35:33;;;;;;;2.40;0.63;;;18.80;99.90;;;;;;5031520;28;20044;-84
2021/09/27 08:38:01;;;;;;;1.45;0.68;;;18.90;99.90;;;;;;5006263;28;20032;-85
2021/09/27 08:40:45;;;;;;;2.17;1.13;;;19.00;99.90;;;;;;5014195;28;20032;-85
2021/09/27 08:43:29;;;;;;;2.08;0.70;;;19.10;99.90;;;;;;4999608;28;20445;-85
2021/09/27 08:46:01;;;;;;;2.08;0.82;;;19.20;99.90;;;;;;5011330;28;20022;-85
2021/09/27 08:48:35;;;;;;;1.17;0.60;;;19.40;99.90;;;;;;4994960;28;20033;-85
2021/09/27 08:51:01;;;;;;;2.20;0.88;;;19.40;99.90;;;;;;5011761;28;20057;-84
2021/09/27 08:53:33;;;;;;;0.68;0.40;;;19.60;99.90;;;;;;5014406;28;20486;-85
2021/09/27 08:56:26;;;;;;;1.70;0.50;;;19.60;99.90;;;;;;5012879;28;20108;-85
2021/09/27 08:58:54;;;;;;;2.17;1.13;;;19.60;99.90;;;;;;5016142;28;20048;-85
2021/09/27 09:01:47;;;;;;;1.20;0.65;;;19.60;99.90;;;;;;5031489;28;20359;-85
2021/09/27 09:04:43;;;;;;;1.52;0.70;;;19.60;99.90;;;;;;5014170;28;20537;-85
2021/09/27 09:07:15;;;;;;;1.63;0.75;;;19.80;99.90;;;;;;5031760;28;20059;-85
2021/09/27 09:09:49;;;;;;;1.52;0.60;;;19.90;99.90;;;;;;5013790;28;20116;-84
2021/09/27 09:12:55;;;;;;;1.27;0.60;;;20.00;99.90;;;;;;5031761;28;20485;-84
2021/09/27 09:15:27;;;;;;;1.15;0.47;;;20.10;99.90;;;;;;5026193;28;20032;-84
2021/09/27 09:17:55;;;;;;;6.45;1.80;;;20.00;99.90;;;;;;5012323;28;20052;-85
2021/09/27 09:20:59;;;;;;;1.67;0.70;;;20.10;99.90;;;;;;4993989;28;20505;-85
2021/09/27 09:23:58;;;;;;;1.83;0.88;;;20.30;99.90;;;;;;4995122;28;20025;-85
2021/09/27 09:26:34;;;;;;;0.60;0.30;;;20.50;99.90;;;;;;4993925;28;20025;-84
2021/09/27 09:29:00;;;;;;;2.25;0.57;;;20.50;99.90;;;;;;5001944;28;20397;-85
2021/09/27 09:31:44;;;;;;;1.58;0.50;;;20.40;99.90;;;;;;5029882;28;20496;-84
2021/09/27 09:34:21;;;;;;;1.20;0.43;;;20.40;99.90;;;;;;5010443;28;20032;-85
2021/09/27 09:36:53;;;;;;;1.05;0.52;;;20.60;99.90;;;;;;4993903;28;20446;-85
2021/09/27 09:39:26;;;;;;;1.05;0.40;;;20.80;99.90;;;;;;4993923;28;20049;-84
2021/09/27 09:41:56;;;;;;;0.52;0.30;;;20.90;99.90;;;;;;5011844;28;20025;-84
2021/09/27 09:44:40;;;;;;;0.45;0.30;;;21.10;99.90;;;;;;4993752;28;20034;-85
2021/09/27 09:47:30;;;;;;;1.00;0.40;;;21.30;99.90;;;;;;4993994;28;20026;-85
2021/09/27 09:50:11;;;;;;;1.27;0.40;;;21.60;99.90;;;;;;5005412;28;20045;-85
2021/09/27 09:52:55;;;;;;;0.65;0.30;;;21.60;99.90;;;;;;5006844;28;20026;-85
2021/09/27 09:55:31;;;;;;;1.58;0.70;;;21.70;99.90;;;;;;5031343;28;20049;-85
2021/09/27 09:58:03;;;;;;;1.35;0.40;;;22.00;99.90;;;;;;5011551;28;20028;-85
2021/09/27 10:00:55;;;;;;;0.77;0.40;;;22.20;99.90;;;;;;5013594;28;20247;-85
2021/09/27 10:03:29;;;;;;;1.27;0.40;;;21.90;99.90;;;;;;5029526;28;20022;-84
2021/09/27 10:06:04;;;;;;;0.63;0.28;;;21.70;99.90;;;;;;5019627;28;20026;-85
2021/09/27 10:08:30;;;;;;;0.68;0.28;;;21.80;99.90;;;;;;5012182;28;20033;-86
2021/09/27 10:11:06;;;;;;;0.93;0.30;;;21.70;99.90;;;;;;5009335;28;20021;-86
2021/09/27 10:13:54;;;;;;;1.40;0.60;;;21.90;99.90;;;;;;5028331;28;20402;-86
2021/09/27 10:16:40;;;;;;;1.10;0.60;;;22.10;99.90;;;;;;5010866;28;20381;-86
2021/09/27 10:19:13;;;;;;;0.95;0.30;;;22.20;99.90;;;;;;5030058;28;20029;-86
2021/09/27 10:21:40;;;;;;;0.57;0.20;;;22.30;99.90;;;;;;5017440;28;20026;-86
2021/09/27 10:24:22;;;;;;;0.95;0.40;;;22.30;99.90;;;;;;4993380;28;20092;-86
2021/09/27 10:26:53;;;;;;;0.65;0.30;;;22.40;99.90;;;;;;5024422;28;20320;-86
2021/09/27 10:29:24;;;;;;;1.02;0.40;;;22.10;99.90;;;;;;5029829;28;20104;-86
2021/09/27 10:31:55;;;;;;;;;;;22.20;99.90;;;;;;5009664;28;20091;-86
2021/09/27 10:34:23;;;;;;;0.87;0.47;;;22.10;99.90;;;;;;5027751;28;19912;-86
2021/09/27 10:36:56;;;;;;;0.52;0.30;;;22.10;99.90;;;;;;4995650;28;20068;-86
2021/09/27 10:39:23;;;;;;;0.82;0.38;;;22.00;99.90;;;;;;4993112;28;20057;-85
2021/09/27 10:42:09;;;;;;;0.40;0.20;;;22.20;99.90;;;;;;4992791;28;20036;-86
2021/09/27 10:44:43;;;;;;;1.30;0.45;;;22.60;99.90;;;;;;4994766;28;20125;-86
2021/09/27 10:49:58;;;;;;;0.47;0.20;;;22.40;99.90;;;;;;5070277;28;20059;-84
2021/09/27 10:52:41;;;;;;;0.95;0.30;;;22.10;99.90;;;;;;5081339;28;20059;-84
2021/09/27 10:55:46;;;;;;;0.60;0.17;;;21.90;99.90;;;;;;5089461;28;20029;-84
2021/09/27 10:58:24;;;;;;;0.60;0.30;;;21.70;99.90;;;;;;5065051;28;20099;-85
2021/09/27 11:00:53;;;;;;;0.38;0.20;;;21.60;99.90;;;;;;5063005;28;20084;-85
2021/09/27 11:03:47;;;;;;;0.57;0.30;;;21.40;99.90;;;;;;5070406;28;20047;-84
2021/09/27 11:06:28;;;;;;;0.50;0.20;;;21.50;99.90;;;;;;5079132;28;20103;-85
2021/09/27 11:09:05;;;;;;;0.47;0.25;;;21.70;99.90;;;;;;5071825;28;20055;-85
2021/09/27 11:11:32;;;;;;;0.88;0.32;;;21.90;99.90;;;;;;5062372;28;20093;-84
2021/09/27 11:14:00;;;;;;;0.57;0.28;;;22.20;99.90;;;;;;5080844;28;20395;-84
2021/09/27 11:16:29;;;;;;;0.63;0.20;;;22.30;99.90;;;;;;5068773;28;20046;-84
2021/09/27 11:19:06;;;;;;;1.60;0.63;;;22.40;99.90;;;;;;5068838;28;20036;-83
2021/09/27 11:21:35;;;;;;;0.63;0.20;;;22.70;99.90;;;;;;5053708;28;20005;-83
2021/09/27 11:24:42;;;;;;;0.55;0.20;;;22.80;99.90;;;;;;5059293;28;20020;-86
2021/09/27 11:27:37;;;;;;;0.82;0.35;;;22.70;99.90;;;;;;5075890;28;20052;-83
2021/09/27 11:30:23;;;;;;;0.75;0.20;;;22.80;99.90;;;;;;5057288;28;20106;-81
2021/09/27 11:32:54;;;;;;;0.82;0.35;;;22.90;99.60;;;;;;5040296;28;20694;-84
2021/09/27 11:35:37;;;;;;;1.35;0.40;;;23.00;99.30;;;;;;5051865;28;20035;-84
2021/09/27 11:38:30;;;;;;;0.47;0.22;;;23.20;99.90;;;;;;5050964;28;20040;-84
2021/09/27 11:41:22;;;;;;;0.40;0.20;;;23.40;99.90;;;;;;5058786;28;20028;-84
2021/09/27 11:44:22;;;;;;;0.40;0.17;;;23.40;99.20;;;;;;5072933;28;20485;-84
2021/09/27 11:47:28;;;;;;;0.82;0.30;;;23.30;99.40;;;;;;5077619;28;20017;-84
2021/09/27 11:50:05;;;;;;;0.75;0.22;;;23.30;99.80;;;;;;5042338;28;20049;-83
2021/09/27 11:52:45;;;;;;;0.35;0.20;;;23.00;99.50;;;;;;5043105;28;20024;-84
2021/09/27 11:55:32;;;;;;;0.32;0.20;;;22.80;99.90;;;;;;5079037;28;20035;-84
2021/09/27 11:58:07;;;;;;;0.22;0.10;;;22.80;99.70;;;;;;5063381;28;20032;-84
2021/09/27 12:00:58;;;;;;;0.57;0.17;;;22.70;99.80;;;;;;5083698;28;20492;-84
2021/09/27 12:03:31;;;;;;;0.85;0.40;;;23.00;99.90;;;;;;5077112;28;20037;-85
2021/09/27 12:06:11;;;;;;;0.28;0.20;;;23.30;99.90;;;;;;5075031;28;20025;-85
2021/09/27 12:08:46;;;;;;;0.93;0.30;;;23.50;99.80;;;;;;5075570;28;20096;-85
2021/09/27 12:11:15;;;;;;;0.80;0.40;;;23.50;99.10;;;;;;5067587;28;20024;-85
2021/09/27 12:13:50;;;;;;;1.05;0.32;;;23.50;99.10;;;;;;5057596;28;20013;-86
2021/09/27 12:16:24;;;;;;;0.25;0.10;;;23.30;98.40;;;;;;5049438;28;20084;-85
2021/09/27 12:18:59;;;;;;;0.50;0.20;;;23.20;98.60;;;;;;5043660;28;20037;-86
2021/09/27 12:21:31;;;;;;;0.70;0.28;;;23.10;98.50;;;;;;5078050;28;20016;-85
2021/09/27 12:24:08;;;;;;;1.05;0.30;;;23.10;98.90;;;;;;5054547;28;20119;-86
2021/09/27 12:26:46;;;;;;;0.65;0.32;;;22.90;99.50;;;;;;5071370;28;20032;-86
2021/09/27 12:29:22;;;;;;;0.50;0.30;;;22.90;99.20;;;;;;5077961;28;20024;-86
2021/09/27 12:32:03;;;;;;;0.30;0.20;;;23.20;99.80;;;;;;5067638;28;20041;-86
2021/09/27 12:34:35;;;;;;;0.73;0.28;;;23.50;99.50;;;;;;5071649;28;20032;-86
2021/09/27 12:37:01;;;;;;;0.55;0.20;;;23.50;99.20;;;;;;5058933;28;20100;-85
2021/09/27 12:39:29;;;;;;;0.55;0.20;;;23.50;99.20;;;;;;5055851;28;20055;-85
2021/09/27 12:41:59;;;;;;;0.30;0.20;;;23.30;98.70;;;;;;5074927;28;20025;-84
2021/09/27 12:44:31;;;;;;;0.35;0.20;;;23.40;98.40;;;;;;5074365;28;20017;-84
2021/09/27 12:47:00;;;;;;;0.88;0.28;;;23.50;98.70;;;;;;5056241;28;20016;-84
2021/09/27 12:49:37;;;;;;;0.32;0.13;;;23.30;98.80;;;;;;5059113;28;20040;-85
2021/09/27 12:52:07;;;;;;;0.50;0.30;;;23.30;98.70;;;;;;5073346;28;20025;-85
2021/09/27 12:54:51;;;;;;;0.45;0.20;;;23.20;99.50;;;;;;5062446;28;20056;-84
2021/09/27 12:57:27;;;;;;;0.65;0.30;;;23.10;99.90;;;;;;5081276;28;20028;-85
2021/09/27 12:59:55;;;;;;;0.43;0.20;;;23.00;99.60;;;;;;5073638;28;20025;-86
2021/09/27 13:02:42;;;;;;;0.90;0.40;;;23.00;99.70;;;;;;5062702;28;20032;-85
2021/09/27 13:05:20;;;;;;;0.73;0.30;;;22.80;99.40;;;;;;5050776;28;20394;-86
2021/09/27 13:07:50;;;;;;;0.57;0.20;;;22.90;99.90;;;;;;5066126;28;20037;-85
2021/09/27 13:10:24;;;;;;;0.73;0.30;;;22.90;99.90;;;;;;5048429;28;20492;-85
2021/09/27 13:13:04;;;;;;;0.65;0.20;;;23.20;99.90;;;;;;5047154;28;20033;-83
2021/09/27 13:15:42;;;;;;;0.43;0.20;;;23.30;99.20;;;;;;5070458;28;20424;-85
2021/09/27 13:18:24;;;;;;;0.88;0.40;;;23.20;99.80;;;;;;5077380;28;20021;-82
2021/09/27 13:21:05;;;;;;;0.30;0.10;;;23.20;99.90;;;;;;5078211;28;20029;-83
2021/09/27 13:23:39;;;;;;;0.88;0.30;;;23.20;99.80;;;;;;5071000;28;20073;-83
2021/09/27 13:26:13;;;;;;;0.85;0.20;;;23.00;99.90;;;;;;5066107;28;20078;-84
2021/09/27 13:28:44;;;;;;;0.40;0.20;;;22.90;99.90;;;;;;5067876;28;20051;-84
2021/09/27 13:31:10;;;;;;;0.77;0.20;;;22.80;99.90;;;;;;5069548;28;20021;-85
2021/09/27 13:33:56;;;;;;;0.30;0.20;;;22.70;99.90;;;;;;5040412;28;20064;-85
2021/09/27 13:36:47;;;;;;;0.80;0.30;;;22.50;99.90;;;;;;5057474;28;20035;-84
2021/09/27 13:39:12;;;;;;;0.50;0.20;;;22.30;99.90;;;;;;5056605;28;20036;-84
2021/09/27 13:41:57;;;;;;;6.22;0.40;;;22.20;99.90;;;;;;5045192;28;20482;-84
2021/09/27 13:44:54;;;;;;;0.73;0.38;;;22.20;99.90;;;;;;5072628;28;20032;-85